Time;durP1;ratioP1;P1;durP2;ratioP2;P2;SDS_P1;SDS_P2;PMS_P1;PMS_P2;Temp;Humidity;BMP_temperature;BMP_pressure;BME280_temperature;BME280_humidity;BME280_pressure;Samples;Min_cycle;Max_cycle;Signal;HPM_P1;HPM_P2
2022/09/14 00:02:39;;;;;;;4.03;3.30;;;;;;;24.14;44.60;99807.84;20670670;28;20119;-75
2022/09/14 00:12:39;;;;;;;3.50;3.05;;;;;;;24.12;44.51;99807.16;20679122;28;20054;-75
2022/09/14 00:22:40;;;;;;;4.45;2.90;;;;;;;24.10;44.65;99802.03;20671629;28;20041;-76
2022/09/14 00:32:41;;;;;;;4.03;3.10;;;;;;;24.08;44.35;99772.28;20699646;28;20041;-76
2022/09/14 00:42:41;;;;;;;4.18;2.92;;;;;;;24.10;44.75;99770.28;20681757;28;20480;-77
2022/09/14 00:52:47;;;;;;;3.22;2.67;;;;;;;24.04;44.50;99762.97;20686319;28;20045;-77
2022/09/14 01:02:48;;;;;;;3.20;2.70;;;;;;;24.08;45.15;99777.56;20683958;28;20033;-76
2022/09/14 01:13:00;;;;;;;3.40;2.53;;;;;;;24.06;44.61;99770.75;20710487;28;20041;-76
2022/09/14 01:23:19;;;;;;;2.83;2.53;;;;;;;24.04;44.55;99768.25;20682304;28;20069;-77
2022/09/14 01:33:39;;;;;;;2.85;2.65;;;;;;;24.01;44.78;99743.94;20681900;28;20041;-76
2022/09/14 01:43:56;;;;;;;2.72;2.20;;;;;;;23.98;44.67;99743.25;20682094;28;20037;-76
2022/09/14 01:54:06;;;;;;;2.95;2.33;;;;;;;23.97;44.82;99741.59;20674201;28;20161;-76
2022/09/14 02:04:11;;;;;;;2.95;2.33;;;;;;;23.98;44.89;99723.91;20668533;28;20528;-76
2022/09/14 02:14:12;;;;;;;3.05;2.15;;;;;;;23.95;44.81;99717.13;20680038;28;20097;-76
2022/09/14 02:24:14;;;;;;;3.05;2.22;;;;;;;23.93;45.04;99695.28;20681938;28;20048;-77
2022/09/14 02:34:46;;;;;;;2.40;2.10;;;;;;;23.90;44.99;99692.09;20683049;28;20053;-77
2022/09/14 02:44:54;;;;;;;2.13;1.92;;;;;;;23.91;44.99;99684.03;20678046;28;20045;-77
2022/09/14 02:55:01;;;;;;;2.08;1.88;;;;;;;23.89;44.91;99672.75;20685381;28;20133;-76
2022/09/14 03:05:01;;;;;;;3.55;2.00;;;;;;;23.90;44.86;99681.50;20666343;28;20046;-76
2022/09/14 03:15:02;;;;;;;2.40;2.20;;;;;;;23.87;44.93;99664.13;20672874;28;20042;-77
2022/09/14 03:25:03;;;;;;;2.23;1.77;;;;;;;23.86;44.81;99667.75;20685459;28;20474;-77
2022/09/14 03:35:04;;;;;;;4.00;2.07;;;;;;;23.84;44.88;99667.09;20692356;28;20404;-78
2022/09/14 03:45:05;;;;;;;2.20;2.00;;;;;;;23.82;45.08;99651.38;20684869;28;20393;-75
2022/09/14 03:55:08;;;;;;;3.43;1.70;;;;;;;23.86;44.44;99664.31;20681139;28;20030;-76
2022/09/14 04:05:08;;;;;;;2.20;2.00;;;;;;;23.87;44.53;99669.44;20667588;28;20040;-75
2022/09/14 04:15:09;;;;;;;2.30;2.10;;;;;;;23.88;44.79;99662.34;20681756;28;20046;-76
2022/09/14 04:25:09;;;;;;;3.72;2.10;;;;;;;23.91;46.19;99640.88;20676724;28;20050;-78
2022/09/14 04:35:09;;;;;;;7.07;2.13;;;;;;;23.95;46.92;99629.03;20673348;28;20065;-75
2022/09/14 04:45:11;;;;;;;4.03;2.50;;;;;;;23.97;47.02;99627.06;20690192;28;20053;-84
2022/09/14 04:55:12;;;;;;;6.38;2.40;;;;;;;23.97;47.01;99633.19;20681546;28;20048;-79
2022/09/14 05:05:12;;;;;;;10.15;3.30;;;;;;;23.93;45.19;99613.31;20655803;28;20038;-77
2022/09/14 05:15:13;;;;;;;4.70;2.90;;;;;;;23.65;41.97;99618.72;20646738;28;20038;-79
2022/09/14 05:25:14;;;;;;;8.63;3.22;;;;;;;23.32;40.09;99636.94;20678654;28;20412;-80
2022/09/14 05:35:15;;;;;;;6.10;3.07;;;;;;;23.09;40.00;99633.88;20711597;28;20030;-78
2022/09/14 05:45:15;;;;;;;11.20;2.80;;;;;;;22.93;40.18;99596.75;20690004;28;20049;-79
2022/09/14 05:55:15;;;;;;;10.18;2.90;;;;;;;23.03;40.76;99610.72;20648918;28;22210;-77
2022/09/14 06:05:17;;;;;;;6.15;2.60;;;;;;;23.24;41.91;99628.09;20658878;28;20049;-76
2022/09/14 06:15:17;;;;;;;7.93;2.60;;;;;;;23.32;42.21;99622.91;20654912;28;20049;-76
2022/09/14 06:25:17;;;;;;;3.33;2.53;;;;;;;23.39;42.41;99610.75;20644712;28;20592;-75
2022/09/14 06:35:18;;;;;;;5.70;2.53;;;;;;;23.45;42.20;99612.78;20682255;28;20034;-76
2022/09/14 06:45:20;;;;;;;6.87;2.53;;;;;;;23.50;42.27;99614.97;20695102;28;20037;-78
2022/09/14 06:55:20;;;;;;;4.40;2.50;;;;;;;23.53;42.37;99645.53;20699427;28;20278;-77
2022/09/14 07:05:21;;;;;;;5.65;2.40;;;;;;;23.53;42.54;99627.88;20699052;28;20046;-76
2022/09/14 07:15:21;;;;;;;5.80;2.30;;;;;;;23.55;42.86;99612.69;20679056;28;20045;-77
2022/09/14 07:25:22;;;;;;;7.05;2.28;;;;;;;23.57;43.47;99616.03;20683482;28;20932;-78
2022/09/14 07:35:22;;;;;;;7.55;2.47;;;;;;;23.57;44.06;99626.59;20716945;28;20034;-77
2022/09/14 07:45:23;;;;;;;5.47;1.95;;;;;;;23.56;44.00;99618.78;20739736;28;20038;-77
2022/09/14 07:55:23;;;;;;;3.67;2.22;;;;;;;23.55;44.17;99617.97;20730849;28;20508;-77
2022/09/14 08:05:24;;;;;;;4.13;2.13;;;;;;;23.57;44.17;99607.25;20714980;28;20049;-77
2022/09/14 08:15:26;;;;;;;4.57;2.10;;;;;;;23.56;44.01;99593.22;20703386;28;20455;-77
2022/09/14 08:25:26;;;;;;;3.37;2.13;;;;;;;23.55;43.90;99577.53;20708236;28;20034;-77
2022/09/14 08:35:26;;;;;;;3.40;2.03;;;;;;;23.60;44.32;99586.63;20724491;28;20041;-77
2022/09/14 08:45:28;;;;;;;4.03;2.03;;;;;;;23.62;44.08;99581.19;20740785;28;20045;-77
2022/09/14 08:55:41;;;;;;;3.23;2.00;;;;;;;23.63;44.11;99567.84;20740083;28;20034;-77
2022/09/14 09:05:47;;;;;;;3.72;2.03;;;;;;;23.68;44.28;99567.38;20706490;28;20634;-77
2022/09/14 09:15:54;;;;;;;3.03;2.08;;;;;;;23.67;44.51;99565.72;20697751;28;20042;-77
2022/09/14 09:26:17;;;;;;;1.98;1.60;;;;;;;23.71;44.20;99582.91;20689938;28;20046;-77
2022/09/14 09:36:18;;;;;;;2.38;1.80;;;;;;;23.74;44.51;99606.41;20704893;28;20370;-77
2022/09/14 09:46:19;;;;;;;1.77;1.60;;;;;;;23.77;44.30;99623.75;20705328;28;20073;-77
2022/09/14 09:56:23;;;;;;;2.15;1.75;;;;;;;23.80;44.30;99624.28;20731529;28;20322;-77
2022/09/14 10:06:23;;;;;;;2.60;1.85;;;;;;;23.85;44.13;99618.50;20733225;28;20045;-77
2022/09/14 10:16:28;;;;;;;2.47;1.83;;;;;;;23.88;44.34;99630.63;20721918;28;20693;-77
2022/09/14 10:26:33;;;;;;;2.42;1.80;;;;;;;23.88;44.17;99617.41;20690827;28;20054;-78
2022/09/14 10:36:46;;;;;;;2.17;1.75;;;;;;;23.89;44.43;99603.16;20682599;28;20030;-76
2022/09/14 10:46:59;;;;;;;1.83;1.55;;;;;;;23.91;44.16;99596.75;20701466;28;20168;-77
2022/09/14 10:57:22;;;;;;;2.10;1.55;;;;;;;23.93;44.37;99599.28;20673803;28;20143;-76
2022/09/14 11:07:58;;;;;;;1.70;1.52;;;;;;;23.93;44.38;99594.00;20682202;28;20528;-76
2022/09/14 11:18:38;;;;;;;2.10;1.90;;;;;;;23.90;44.46;99587.16;20676438;28;20046;-76
2022/09/14 11:28:46;;;;;;;1.77;1.67;;;;;;;23.91;44.39;99572.97;20687213;28;20416;-76
2022/09/14 11:39:05;;;;;;;2.22;1.70;;;;;;;23.88;44.43;99557.41;20691720;28;20121;-76
2022/09/14 11:49:17;;;;;;;2.08;1.73;;;;;;;23.89;44.42;99545.00;20727589;28;20481;-76
2022/09/14 11:59:49;;;;;;;2.22;1.83;;;;;;;23.86;44.61;99545.34;20742464;28;20390;-76
2022/09/14 12:09:51;;;;;;;1.83;1.70;;;;;;;23.90;44.41;99542.22;20737368;28;20192;-76
2022/09/14 12:19:57;;;;;;;2.08;1.80;;;;;;;23.93;44.40;99534.00;20713561;28;20038;-76
2022/09/14 12:29:58;;;;;;;7.00;2.25;;;;;;;23.97;45.29;99518.63;20702671;28;20076;-77
2022/09/14 12:40:20;;;;;;;9.20;2.43;;;;;;;23.97;45.01;99511.56;20711640;28;20044;-76
2022/09/14 12:50:21;;;;;;;7.55;2.38;;;;;;;24.06;44.95;99496.53;20711930;28;20050;-77
2022/09/14 13:00:22;;;;;;;9.15;2.55;;;;;;;24.14;44.73;99471.94;20714579;28;20060;-77
2022/09/14 13:10:35;;;;;;;8.05;3.05;;;;;;;24.21;45.17;99443.03;20700385;28;20053;-78
2022/09/14 13:20:36;;;;;;;5.10;2.67;;;;;;;24.35;45.26;99452.16;20710854;28;20045;-78
2022/09/14 13:30:36;;;;;;;3.80;2.50;;;;;;;24.41;45.76;99452.34;20709440;28;20436;-80
2022/09/14 13:40:36;;;;;;;6.20;3.40;;;;;;;24.49;45.25;99458.63;20723623;28;20037;-80
2022/09/14 13:50:37;;;;;;;8.95;4.85;;;;;;;24.54;45.27;99454.50;20722073;28;20050;-81
2022/09/14 14:00:53;;;;;;;20.42;10.20;;;;;;;24.55;45.24;99450.84;20722227;28;20099;-83
2022/09/14 14:10:56;;;;;;;20.83;9.13;;;;;;;24.58;45.13;99442.59;20718093;28;20741;-81
2022/09/14 14:21:12;;;;;;;26.13;10.57;;;;;;;24.51;45.31;99423.06;20699989;28;20060;-79
2022/09/14 14:31:15;;;;;;;22.20;9.52;;;;;;;24.47;45.25;99411.16;20722374;28;20474;-82
2022/09/14 14:41:20;;;;;;;17.52;9.82;;;;;;;24.44;45.09;99407.00;20724590;28;20038;-78
2022/09/14 14:51:20;;;;;;;24.00;16.27;;;;;;;24.52;45.70;99385.00;20721972;28;20056;-81
2022/09/14 15:01:21;;;;;;;28.40;15.47;;;;;;;24.50;45.41;99384.38;20718003;28;20584;-77
2022/09/14 15:11:23;;;;;;;23.00;13.93;;;;;;;24.49;45.16;99388.00;20716054;28;20496;-75
2022/09/14 15:21:23;;;;;;;;;;;;;;;24.40;45.91;99371.31;20738130;28;20481;-86
2022/09/14 15:31:24;;;;;;;21.23;12.60;;;;;;;24.56;45.70;99354.59;20724295;28;20309;-90
2022/09/14 15:41:25;;;;;;;17.00;11.03;;;;;;;24.63;45.64;99333.56;20740957;28;20481;-89
2022/09/14 15:51:26;;;;;;;17.00;10.65;;;;;;;24.62;45.25;99319.50;20745329;28;20432;-87
2022/09/14 16:01:26;;;;;;;15.00;9.35;;;;;;;24.61;45.50;99333.75;20748025;28;20050;-88
2022/09/14 16:11:27;;;;;;;14.33;8.80;;;;;;;24.62;45.87;99353.94;20722179;28;20050;-87
2022/09/14 16:21:28;;;;;;;19.85;7.65;;;;;;;24.74;47.64;99378.28;20701175;28;20501;-77
2022/09/14 16:31:32;;;;;;;11.35;7.18;;;;;;;24.73;47.13;99358.09;20702253;28;20049;-79
2022/09/14 16:41:32;;;;;;;23.17;7.25;;;;;;;24.70;47.91;99354.94;20713569;28;20054;-80
2022/09/14 16:51:33;;;;;;;17.17;3.90;;;;;;;24.43;50.42;99341.84;20698170;28;20112;-77
2022/09/14 17:01:37;;;;;;;3.35;2.75;;;;;;;24.30;50.80;99334.44;20685948;28;20034;-80
2022/09/14 17:11:40;;;;;;;11.57;7.15;;;;;;;24.22;50.67;99323.03;20694842;28;20050;-81
2022/09/14 17:21:43;;;;;;;26.88;15.13;;;;;;;24.07;51.22;99313.09;20696012;28;20045;-82
2022/09/14 17:31:44;;;;;;;12.95;5.68;;;;;;;24.04;51.20;99294.06;20693080;28;21229;-81
2022/09/14 17:41:44;;;;;;;10.10;4.47;;;;;;;23.88;51.60;99290.38;20708115;28;21492;-82
2022/09/14 17:51:45;;;;;;;8.48;4.68;;;;;;;23.78;52.94;99273.88;20703616;28;20599;-82
2022/09/14 18:01:47;;;;;;;9.00;5.40;;;;;;;23.76;52.96;99267.91;20714775;28;20041;-81
2022/09/14 18:11:55;;;;;;;10.02;6.38;;;;;;;23.86;54.96;99279.13;20698737;28;20057;-82
2022/09/14 18:21:55;;;;;;;14.63;6.20;;;;;;;23.87;55.15;99298.50;20708294;28;20053;-87
2022/09/14 18:31:58;;;;;;;14.88;6.60;;;;;;;23.89;55.10;99301.78;20710311;28;21188;-82
2022/09/14 18:41:59;;;;;;;11.52;5.72;;;;;;;23.90;54.03;99280.47;20711286;28;20039;-78
2022/09/14 18:51:59;;;;;;;11.50;4.88;;;;;;;23.95;53.46;99264.97;20688245;28;20038;-78
2022/09/14 19:01:59;;;;;;;12.85;5.63;;;;;;;23.98;52.87;99274.41;20693349;28;20085;-81
2022/09/14 19:12:00;;;;;;;6.80;4.35;;;;;;;24.03;52.90;99261.50;20695403;28;20050;-77
2022/09/14 19:22:01;;;;;;;6.23;4.17;;;;;;;24.07;52.89;99256.72;20702880;28;20049;-79
2022/09/14 19:32:01;;;;;;;6.35;3.92;;;;;;;24.09;52.30;99254.75;20737006;28;20058;-80
2022/09/14 19:42:02;;;;;;;6.65;3.60;;;;;;;24.10;52.29;99262.50;20738462;28;20038;-80
2022/09/14 19:52:02;;;;;;;8.03;4.17;;;;;;;24.12;52.29;99262.31;20739414;28;20038;-79
2022/09/14 20:02:03;;;;;;;6.80;3.58;;;;;;;24.12;52.61;99252.59;20718268;28;20128;-76
2022/09/14 20:12:03;;;;;;;4.57;3.33;;;;;;;24.16;52.48;99233.72;20715975;28;20052;-78
2022/09/14 20:22:04;;;;;;;5.82;3.40;;;;;;;24.16;52.21;99221.34;20709985;28;20042;-78
2022/09/14 20:32:05;;;;;;;4.78;3.55;;;;;;;24.17;52.25;99193.06;20722064;28;20156;-79
2022/09/14 20:42:05;;;;;;;6.23;3.40;;;;;;;24.17;52.21;99223.00;20717501;28;20125;-78
2022/09/14 20:52:06;;;;;;;3.23;2.87;;;;;;;24.17;52.12;99228.28;20712224;28;20519;-79
2022/09/14 21:02:08;;;;;;;5.68;3.28;;;;;;;24.20;52.18;99208.63;20712008;28;20042;-79
2022/09/14 21:12:11;;;;;;;6.70;3.33;;;;;;;24.18;51.89;99224.66;20711231;28;20038;-79
2022/09/14 21:22:11;;;;;;;5.78;3.13;;;;;;;24.20;51.86;99224.47;20701927;28;20515;-80
2022/09/14 21:32:11;;;;;;;5.80;3.03;;;;;;;24.20;52.55;99225.28;20687493;28;20042;-77
2022/09/14 21:42:13;;;;;;;3.55;2.95;;;;;;;24.19;52.84;99221.00;20711329;28;20044;-79
2022/09/14 21:52:13;;;;;;;8.45;3.00;;;;;;;24.16;52.81;99218.69;20700189;28;20765;-78
2022/09/14 22:02:14;;;;;;;6.13;3.00;;;;;;;24.17;52.75;99220.34;20697822;28;20053;-78
2022/09/14 22:12:14;;;;;;;5.40;2.92;;;;;;;24.16;52.61;99210.78;20689780;28;20046;-77
2022/09/14 22:22:16;;;;;;;5.70;3.10;;;;;;;24.15;52.50;99198.53;20684223;28;20085;-78
2022/09/14 22:32:20;;;;;;;3.70;2.90;;;;;;;24.15;52.65;99224.97;20689919;28;20049;-78
2022/09/14 22:42:22;;;;;;;4.82;3.13;;;;;;;24.12;52.36;99220.84;20691852;28;20143;-78
2022/09/14 22:52:23;;;;;;;3.38;3.05;;;;;;;24.14;51.96;99207.44;20694777;28;20046;-77
2022/09/14 23:02:23;;;;;;;3.50;2.80;;;;;;;24.13;51.99;99200.50;20708531;28;20053;-77
2022/09/14 23:12:24;;;;;;;3.83;2.90;;;;;;;24.12;52.19;99207.63;20669140;28;20049;-77
2022/09/14 23:22:25;;;;;;;2.97;2.67;;;;;;;24.12;51.88;99198.84;20680860;28;20041;-78
2022/09/14 23:32:26;;;;;;;3.40;2.97;;;;;;;24.10;51.67;99201.66;20690080;28;20058;-78
2022/09/14 23:42:27;;;;;;;3.65;3.20;;;;;;;24.10;51.73;99200.84;20700553;28;20042;-78
2022/09/14 23:52:28;;;;;;;3.63;3.03;;;;;;;24.10;51.69;99182.34;20705679;28;20045;-78
